sensor_id;sensor_type;location;lat;lon;timestamp;P1;durP1;ratioP1;P2;durP2;ratioP2
31798;SDS011;18374;51.136;3.502;2023-02-21T00:01:52;49.53;;;20.75;;
31798;SDS011;18374;51.136;3.502;2023-02-21T00:04:38;39.00;;;19.73;;
31798;SDS011;18374;51.136;3.502;2023-02-21T00:07:25;40.03;;;19.33;;
31798;SDS011;18374;51.136;3.502;2023-02-21T00:10:12;40.15;;;19.92;;
31798;SDS011;18374;51.136;3.502;2023-02-21T00:13:00;42.00;;;20.40;;
31798;SDS011;18374;51.136;3.502;2023-02-21T00:18:33;41.23;;;18.87;;
31798;SDS011;18374;51.136;3.502;2023-02-21T00:21:20;33.42;;;18.17;;
31798;SDS011;18374;51.136;3.502;2023-02-21T00:24:07;41.00;;;18.42;;
31798;SDS011;18374;51.136;3.502;2023-02-21T00:26:58;42.28;;;19.42;;
31798;SDS011;18374;51.136;3.502;2023-02-21T00:29:46;41.40;;;19.05;;
31798;SDS011;18374;51.136;3.502;2023-02-21T00:32:33;34.97;;;17.95;;
31798;SDS011;18374;51.136;3.502;2023-02-21T00:35:20;38.58;;;19.65;;
31798;SDS011;18374;51.136;3.502;2023-02-21T00:40:52;41.70;;;18.85;;
31798;SDS011;18374;51.136;3.502;2023-02-21T00:43:39;42.50;;;18.73;;
31798;SDS011;18374;51.136;3.502;2023-02-21T00:46:25;40.35;;;19.27;;
31798;SDS011;18374;51.136;3.502;2023-02-21T00:51:57;53.10;;;20.70;;
31798;SDS011;18374;51.136;3.502;2023-02-21T00:54:44;42.53;;;19.88;;
31798;SDS011;18374;51.136;3.502;2023-02-21T00:57:30;47.22;;;22.15;;
31798;SDS011;18374;51.136;3.502;2023-02-21T01:00:18;53.00;;;22.20;;
31798;SDS011;18374;51.136;3.502;2023-02-21T01:03:08;49.92;;;20.98;;
31798;SDS011;18374;51.136;3.502;2023-02-21T01:05:56;51.42;;;21.85;;
31798;SDS011;18374;51.136;3.502;2023-02-21T01:08:43;49.53;;;20.27;;
31798;SDS011;18374;51.136;3.502;2023-02-21T01:11:31;47.33;;;20.35;;
31798;SDS011;18374;51.136;3.502;2023-02-21T01:14:18;42.42;;;19.67;;
31798;SDS011;18374;51.136;3.502;2023-02-21T01:19:50;41.95;;;17.65;;
31798;SDS011;18374;51.136;3.502;2023-02-21T01:22:36;36.95;;;19.35;;
31798;SDS011;18374;51.136;3.502;2023-02-21T01:25:22;39.47;;;18.38;;
31798;SDS011;18374;51.136;3.502;2023-02-21T01:28:08;40.35;;;17.92;;
31798;SDS011;18374;51.136;3.502;2023-02-21T01:30:54;43.72;;;20.08;;
31798;SDS011;18374;51.136;3.502;2023-02-21T01:33:41;39.10;;;17.58;;
31798;SDS011;18374;51.136;3.502;2023-02-21T01:36:27;35.47;;;16.55;;
31798;SDS011;18374;51.136;3.502;2023-02-21T01:39:14;49.40;;;19.33;;
31798;SDS011;18374;51.136;3.502;2023-02-21T01:42:00;40.88;;;18.50;;
31798;SDS011;18374;51.136;3.502;2023-02-21T01:44:47;35.35;;;16.23;;
31798;SDS011;18374;51.136;3.502;2023-02-21T01:47:34;37.55;;;16.80;;
31798;SDS011;18374;51.136;3.502;2023-02-21T01:50:21;38.78;;;17.25;;
31798;SDS011;18374;51.136;3.502;2023-02-21T01:53:14;41.35;;;18.90;;
31798;SDS011;18374;51.136;3.502;2023-02-21T01:56:08;42.78;;;17.95;;
31798;SDS011;18374;51.136;3.502;2023-02-21T01:58:56;39.70;;;17.55;;
31798;SDS011;18374;51.136;3.502;2023-02-21T02:04:39;40.75;;;17.63;;
31798;SDS011;18374;51.136;3.502;2023-02-21T02:07:27;41.97;;;17.25;;
31798;SDS011;18374;51.136;3.502;2023-02-21T02:40:55;31.52;;;15.05;;
31798;SDS011;18374;51.136;3.502;2023-02-21T02:43:40;34.25;;;14.88;;
31798;SDS011;18374;51.136;3.502;2023-02-21T02:46:18;30.63;;;14.52;;
31798;SDS011;18374;51.136;3.502;2023-02-21T02:48:59;31.38;;;14.77;;
31798;SDS011;18374;51.136;3.502;2023-02-21T02:51:35;31.58;;;14.55;;
31798;SDS011;18374;51.136;3.502;2023-02-21T02:54:06;30.63;;;13.75;;
31798;SDS011;18374;51.136;3.502;2023-02-21T02:56:34;29.60;;;13.43;;
31798;SDS011;18374;51.136;3.502;2023-02-21T02:59:09;31.10;;;14.25;;
31798;SDS011;18374;51.136;3.502;2023-02-21T03:05:21;34.92;;;14.18;;
31798;SDS011;18374;51.136;3.502;2023-02-21T03:13:44;33.60;;;13.93;;
31798;SDS011;18374;51.136;3.502;2023-02-21T03:16:24;37.45;;;14.88;;
31798;SDS011;18374;51.136;3.502;2023-02-21T03:19:05;29.70;;;13.82;;
31798;SDS011;18374;51.136;3.502;2023-02-21T03:21:41;31.75;;;13.95;;
31798;SDS011;18374;51.136;3.502;2023-02-21T03:24:14;31.45;;;13.68;;
31798;SDS011;18374;51.136;3.502;2023-02-21T03:26:45;34.67;;;14.00;;
31798;SDS011;18374;51.136;3.502;2023-02-21T03:29:35;31.83;;;13.75;;
31798;SDS011;18374;51.136;3.502;2023-02-21T03:32:06;32.67;;;14.70;;
31798;SDS011;18374;51.136;3.502;2023-02-21T03:34:50;32.47;;;14.02;;
31798;SDS011;18374;51.136;3.502;2023-02-21T03:37:21;33.42;;;12.98;;
31798;SDS011;18374;51.136;3.502;2023-02-21T03:39:59;35.75;;;15.15;;
31798;SDS011;18374;51.136;3.502;2023-02-21T03:42:31;33.83;;;14.57;;
31798;SDS011;18374;51.136;3.502;2023-02-21T03:44:59;37.55;;;14.88;;
31798;SDS011;18374;51.136;3.502;2023-02-21T03:47:28;41.08;;;15.27;;
31798;SDS011;18374;51.136;3.502;2023-02-21T03:49:55;39.25;;;14.20;;
31798;SDS011;18374;51.136;3.502;2023-02-21T03:52:23;32.08;;;14.38;;
31798;SDS011;18374;51.136;3.502;2023-02-21T03:54:51;34.83;;;14.52;;
31798;SDS011;18374;51.136;3.502;2023-02-21T03:57:21;33.60;;;14.95;;
31798;SDS011;18374;51.136;3.502;2023-02-21T03:59:49;40.05;;;14.98;;
31798;SDS011;18374;51.136;3.502;2023-02-21T04:02:17;36.35;;;15.25;;
31798;SDS011;18374;51.136;3.502;2023-02-21T04:04:46;34.80;;;13.73;;
31798;SDS011;18374;51.136;3.502;2023-02-21T04:07:17;35.33;;;14.50;;
31798;SDS011;18374;51.136;3.502;2023-02-21T04:09:47;38.92;;;15.98;;
31798;SDS011;18374;51.136;3.502;2023-02-21T04:12:23;40.08;;;15.35;;
31798;SDS011;18374;51.136;3.502;2023-02-21T04:14:52;35.90;;;14.20;;
31798;SDS011;18374;51.136;3.502;2023-02-21T04:17:23;36.25;;;15.57;;
31798;SDS011;18374;51.136;3.502;2023-02-21T04:19:53;33.55;;;13.80;;
31798;SDS011;18374;51.136;3.502;2023-02-21T04:22:20;32.40;;;14.65;;
31798;SDS011;18374;51.136;3.502;2023-02-21T04:24:48;34.55;;;14.45;;
31798;SDS011;18374;51.136;3.502;2023-02-21T04:27:17;35.85;;;14.98;;
31798;SDS011;18374;51.136;3.502;2023-02-21T04:29:51;44.20;;;15.68;;
31798;SDS011;18374;51.136;3.502;2023-02-21T04:32:19;37.45;;;14.68;;
31798;SDS011;18374;51.136;3.502;2023-02-21T04:34:47;36.67;;;14.80;;
31798;SDS011;18374;51.136;3.502;2023-02-21T04:37:15;34.58;;;15.27;;
31798;SDS011;18374;51.136;3.502;2023-02-21T04:39:43;37.03;;;15.20;;
31798;SDS011;18374;51.136;3.502;2023-02-21T04:42:11;39.72;;;14.95;;
31798;SDS011;18374;51.136;3.502;2023-02-21T04:44:40;34.95;;;14.30;;
31798;SDS011;18374;51.136;3.502;2023-02-21T04:47:15;35.03;;;14.15;;
31798;SDS011;18374;51.136;3.502;2023-02-21T04:49:42;34.45;;;14.50;;
31798;SDS011;18374;51.136;3.502;2023-02-21T04:52:10;40.40;;;14.57;;
31798;SDS011;18374;51.136;3.502;2023-02-21T04:54:38;34.00;;;14.20;;
31798;SDS011;18374;51.136;3.502;2023-02-21T04:57:05;36.28;;;14.27;;
31798;SDS011;18374;51.136;3.502;2023-02-21T04:59:33;37.83;;;14.57;;
31798;SDS011;18374;51.136;3.502;2023-02-21T05:02:01;33.90;;;14.25;;
31798;SDS011;18374;51.136;3.502;2023-02-21T05:04:28;35.05;;;13.90;;
31798;SDS011;18374;51.136;3.502;2023-02-21T05:07:00;38.17;;;14.02;;
31798;SDS011;18374;51.136;3.502;2023-02-21T05:09:28;36.65;;;14.45;;
31798;SDS011;18374;51.136;3.502;2023-02-21T05:11:55;33.42;;;12.65;;
31798;SDS011;18374;51.136;3.502;2023-02-21T05:14:23;35.47;;;14.35;;
31798;SDS011;18374;51.136;3.502;2023-02-21T05:16:51;30.20;;;11.57;;
31798;SDS011;18374;51.136;3.502;2023-02-21T05:19:21;32.90;;;11.48;;
31798;SDS011;18374;51.136;3.502;2023-02-21T05:21:55;38.40;;;14.00;;
31798;SDS011;18374;51.136;3.502;2023-02-21T05:24:26;30.58;;;11.50;;
31798;SDS011;18374;51.136;3.502;2023-02-21T05:26:56;28.90;;;11.43;;
31798;SDS011;18374;51.136;3.502;2023-02-21T05:29:24;29.67;;;10.85;;
31798;SDS011;18374;51.136;3.502;2023-02-21T05:31:52;28.20;;;10.63;;
31798;SDS011;18374;51.136;3.502;2023-02-21T05:34:20;26.52;;;10.85;;
31798;SDS011;18374;51.136;3.502;2023-02-21T05:36:48;23.83;;;9.70;;
31798;SDS011;18374;51.136;3.502;2023-02-21T05:39:16;22.95;;;9.32;;
31798;SDS011;18374;51.136;3.502;2023-02-21T05:41:47;25.90;;;9.60;;
31798;SDS011;18374;51.136;3.502;2023-02-21T05:44:16;25.55;;;9.48;;
31798;SDS011;18374;51.136;3.502;2023-02-21T05:46:44;20.58;;;8.82;;
31798;SDS011;18374;51.136;3.502;2023-02-21T05:49:12;25.88;;;9.60;;
31798;SDS011;18374;51.136;3.502;2023-02-21T05:51:41;24.65;;;9.38;;
31798;SDS011;18374;51.136;3.502;2023-02-21T05:54:14;26.02;;;10.48;;
31798;SDS011;18374;51.136;3.502;2023-02-21T05:56:45;26.20;;;9.35;;
31798;SDS011;18374;51.136;3.502;2023-02-21T05:59:16;26.40;;;10.70;;
31798;SDS011;18374;51.136;3.502;2023-02-21T06:01:46;21.80;;;8.60;;
31798;SDS011;18374;51.136;3.502;2023-02-21T06:04:15;28.27;;;9.98;;
31798;SDS011;18374;51.136;3.502;2023-02-21T06:06:43;22.77;;;9.50;;
31798;SDS011;18374;51.136;3.502;2023-02-21T06:09:11;25.23;;;9.73;;
31798;SDS011;18374;51.136;3.502;2023-02-21T06:11:39;23.88;;;9.52;;
31798;SDS011;18374;51.136;3.502;2023-02-21T06:14:17;26.30;;;9.25;;
31798;SDS011;18374;51.136;3.502;2023-02-21T06:16:46;24.90;;;9.68;;
31798;SDS011;18374;51.136;3.502;2023-02-21T06:19:14;25.80;;;10.43;;
31798;SDS011;18374;51.136;3.502;2023-02-21T06:21:44;26.10;;;10.40;;
31798;SDS011;18374;51.136;3.502;2023-02-21T06:24:12;29.67;;;10.70;;
31798;SDS011;18374;51.136;3.502;2023-02-21T06:26:40;26.20;;;10.52;;
31798;SDS011;18374;51.136;3.502;2023-02-21T06:29:08;27.17;;;10.27;;
31798;SDS011;18374;51.136;3.502;2023-02-21T06:31:37;27.88;;;10.35;;
31798;SDS011;18374;51.136;3.502;2023-02-21T06:34:05;26.42;;;10.32;;
31798;SDS011;18374;51.136;3.502;2023-02-21T06:36:33;28.85;;;10.75;;
31798;SDS011;18374;51.136;3.502;2023-02-21T06:39:01;23.63;;;9.95;;
31798;SDS011;18374;51.136;3.502;2023-02-21T06:41:29;23.80;;;9.55;;
31798;SDS011;18374;51.136;3.502;2023-02-21T06:43:57;31.20;;;11.75;;
31798;SDS011;18374;51.136;3.502;2023-02-21T06:46:27;31.02;;;11.38;;
31798;SDS011;18374;51.136;3.502;2023-02-21T06:48:56;35.33;;;13.88;;
31798;SDS011;18374;51.136;3.502;2023-02-21T06:51:24;29.38;;;13.82;;
31798;SDS011;18374;51.136;3.502;2023-02-21T06:53:56;30.83;;;13.32;;
31798;SDS011;18374;51.136;3.502;2023-02-21T06:56:24;29.70;;;10.00;;
31798;SDS011;18374;51.136;3.502;2023-02-21T06:58:53;29.05;;;10.00;;
31798;SDS011;18374;51.136;3.502;2023-02-21T07:01:21;26.55;;;10.40;;
31798;SDS011;18374;51.136;3.502;2023-02-21T07:03:51;23.67;;;9.63;;
31798;SDS011;18374;51.136;3.502;2023-02-21T07:06:20;23.17;;;9.57;;
31798;SDS011;18374;51.136;3.502;2023-02-21T07:08:48;25.45;;;9.00;;
31798;SDS011;18374;51.136;3.502;2023-02-21T07:11:16;27.15;;;9.02;;
31798;SDS011;18374;51.136;3.502;2023-02-21T07:13:51;20.10;;;8.13;;
31798;SDS011;18374;51.136;3.502;2023-02-21T07:16:22;25.83;;;9.50;;
31798;SDS011;18374;51.136;3.502;2023-02-21T07:18:50;25.17;;;10.00;;
31798;SDS011;18374;51.136;3.502;2023-02-21T07:21:18;32.50;;;12.70;;
31798;SDS011;18374;51.136;3.502;2023-02-21T07:23:47;48.88;;;14.63;;
31798;SDS011;18374;51.136;3.502;2023-02-21T07:26:15;32.70;;;12.35;;
31798;SDS011;18374;51.136;3.502;2023-02-21T07:28:43;30.08;;;11.32;;
31798;SDS011;18374;51.136;3.502;2023-02-21T07:31:13;47.40;;;15.85;;
31798;SDS011;18374;51.136;3.502;2023-02-21T07:33:45;38.33;;;13.85;;
31798;SDS011;18374;51.136;3.502;2023-02-21T07:36:12;34.47;;;14.02;;
31798;SDS011;18374;51.136;3.502;2023-02-21T07:38:40;28.23;;;11.63;;
31798;SDS011;18374;51.136;3.502;2023-02-21T07:41:08;30.40;;;11.57;;
31798;SDS011;18374;51.136;3.502;2023-02-21T07:43:35;24.90;;;9.43;;
31798;SDS011;18374;51.136;3.502;2023-02-21T07:46:12;25.70;;;9.77;;
31798;SDS011;18374;51.136;3.502;2023-02-21T07:48:42;25.33;;;9.38;;
31798;SDS011;18374;51.136;3.502;2023-02-21T07:51:09;21.83;;;7.93;;
31798;SDS011;18374;51.136;3.502;2023-02-21T07:53:37;18.85;;;7.40;;
31798;SDS011;18374;51.136;3.502;2023-02-21T07:56:06;18.92;;;7.13;;
31798;SDS011;18374;51.136;3.502;2023-02-21T07:58:34;18.55;;;6.55;;
31798;SDS011;18374;51.136;3.502;2023-02-21T08:01:05;17.70;;;7.53;;
31798;SDS011;18374;51.136;3.502;2023-02-21T08:03:33;18.10;;;7.18;;
31798;SDS011;18374;51.136;3.502;2023-02-21T08:06:01;22.00;;;8.50;;
31798;SDS011;18374;51.136;3.502;2023-02-21T08:08:29;21.55;;;8.65;;
31798;SDS011;18374;51.136;3.502;2023-02-21T08:10:57;20.75;;;8.63;;
31798;SDS011;18374;51.136;3.502;2023-02-21T08:13:25;23.60;;;10.48;;
31798;SDS011;18374;51.136;3.502;2023-02-21T08:15:52;22.27;;;9.68;;
31798;SDS011;18374;51.136;3.502;2023-02-21T08:18:21;23.73;;;9.63;;
31798;SDS011;18374;51.136;3.502;2023-02-21T08:20:53;21.95;;;9.10;;
31798;SDS011;18374;51.136;3.502;2023-02-21T08:23:22;23.20;;;10.15;;
31798;SDS011;18374;51.136;3.502;2023-02-21T08:25:50;25.40;;;11.05;;
31798;SDS011;18374;51.136;3.502;2023-02-21T08:28:18;26.88;;;10.73;;
31798;SDS011;18374;51.136;3.502;2023-02-21T08:30:46;26.73;;;10.73;;
31798;SDS011;18374;51.136;3.502;2023-02-21T08:33:13;28.05;;;10.40;;
31798;SDS011;18374;51.136;3.502;2023-02-21T08:35:41;27.95;;;11.07;;
31798;SDS011;18374;51.136;3.502;2023-02-21T08:38:09;26.30;;;10.93;;
31798;SDS011;18374;51.136;3.502;2023-02-21T08:40:36;30.35;;;11.48;;
31798;SDS011;18374;51.136;3.502;2023-02-21T08:43:04;31.65;;;11.18;;
31798;SDS011;18374;51.136;3.502;2023-02-21T08:45:32;24.65;;;9.50;;
31798;SDS011;18374;51.136;3.502;2023-02-21T08:48:00;27.90;;;10.02;;
31798;SDS011;18374;51.136;3.502;2023-02-21T08:50:28;28.30;;;9.38;;
31798;SDS011;18374;51.136;3.502;2023-02-21T08:52:56;24.50;;;9.68;;
31798;SDS011;18374;51.136;3.502;2023-02-21T08:55:24;30.42;;;11.23;;
31798;SDS011;18374;51.136;3.502;2023-02-21T08:57:52;23.58;;;9.70;;
31798;SDS011;18374;51.136;3.502;2023-02-21T09:00:21;28.27;;;9.85;;
31798;SDS011;18374;51.136;3.502;2023-02-21T09:02:50;27.58;;;10.43;;
31798;SDS011;18374;51.136;3.502;2023-02-21T09:05:23;25.75;;;10.02;;
31798;SDS011;18374;51.136;3.502;2023-02-21T09:07:54;30.05;;;10.95;;
31798;SDS011;18374;51.136;3.502;2023-02-21T09:10:28;29.20;;;9.77;;
31798;SDS011;18374;51.136;3.502;2023-02-21T09:13:00;29.85;;;9.90;;
31798;SDS011;18374;51.136;3.502;2023-02-21T09:15:29;28.77;;;10.32;;
31798;SDS011;18374;51.136;3.502;2023-02-21T09:17:57;31.35;;;11.68;;
31798;SDS011;18374;51.136;3.502;2023-02-21T09:20:27;32.30;;;11.52;;
31798;SDS011;18374;51.136;3.502;2023-02-21T09:22:55;36.80;;;13.35;;
31798;SDS011;18374;51.136;3.502;2023-02-21T09:25:23;39.45;;;13.60;;
31798;SDS011;18374;51.136;3.502;2023-02-21T09:27:52;43.03;;;14.63;;
31798;SDS011;18374;51.136;3.502;2023-02-21T09:30:21;37.55;;;14.32;;
31798;SDS011;18374;51.136;3.502;2023-02-21T09:32:53;41.47;;;14.00;;
31798;SDS011;18374;51.136;3.502;2023-02-21T09:35:22;39.15;;;13.90;;
31798;SDS011;18374;51.136;3.502;2023-02-21T09:37:50;39.47;;;13.63;;
31798;SDS011;18374;51.136;3.502;2023-02-21T09:43:12;50.70;;;16.52;;
31798;SDS011;18374;51.136;3.502;2023-02-21T09:45:53;45.28;;;14.48;;
31798;SDS011;18374;51.136;3.502;2023-02-21T09:48:25;40.03;;;13.95;;
31798;SDS011;18374;51.136;3.502;2023-02-21T09:50:58;48.47;;;15.57;;
31798;SDS011;18374;51.136;3.502;2023-02-21T09:53:50;45.25;;;14.88;;
31798;SDS011;18374;51.136;3.502;2023-02-21T09:56:25;41.92;;;15.23;;
31798;SDS011;18374;51.136;3.502;2023-02-21T09:59:12;43.65;;;14.45;;
31798;SDS011;18374;51.136;3.502;2023-02-21T10:01:54;37.70;;;12.95;;
31798;SDS011;18374;51.136;3.502;2023-02-21T10:16:02;28.40;;;10.85;;
31798;SDS011;18374;51.136;3.502;2023-02-21T10:21:32;23.35;;;8.98;;
31798;SDS011;18374;51.136;3.502;2023-02-21T10:24:09;28.73;;;10.40;;
31798;SDS011;18374;51.136;3.502;2023-02-21T10:26:43;25.98;;;10.00;;
31798;SDS011;18374;51.136;3.502;2023-02-21T10:29:23;25.83;;;9.60;;
31798;SDS011;18374;51.136;3.502;2023-02-21T10:32:00;25.60;;;9.73;;
31798;SDS011;18374;51.136;3.502;2023-02-21T10:34:31;22.55;;;9.45;;
31798;SDS011;18374;51.136;3.502;2023-02-21T10:37:05;23.77;;;9.57;;
31798;SDS011;18374;51.136;3.502;2023-02-21T10:43:04;24.27;;;9.37;;
31798;SDS011;18374;51.136;3.502;2023-02-21T10:46:28;24.58;;;9.70;;
31798;SDS011;18374;51.136;3.502;2023-02-21T10:48:52;27.92;;;11.43;;
31798;SDS011;18374;51.136;3.502;2023-02-21T10:51:31;26.48;;;10.07;;
31798;SDS011;18374;51.136;3.502;2023-02-21T10:54:17;27.13;;;10.43;;
31798;SDS011;18374;51.136;3.502;2023-02-21T10:56:48;25.35;;;11.20;;
31798;SDS011;18374;51.136;3.502;2023-02-21T10:59:22;25.75;;;10.65;;
31798;SDS011;18374;51.136;3.502;2023-02-21T11:01:54;27.38;;;10.73;;
31798;SDS011;18374;51.136;3.502;2023-02-21T11:04:28;24.77;;;11.43;;
31798;SDS011;18374;51.136;3.502;2023-02-21T11:07:03;73.30;;;35.13;;
31798;SDS011;18374;51.136;3.502;2023-02-21T11:09:37;99.80;;;45.95;;
31798;SDS011;18374;51.136;3.502;2023-02-21T11:17:22;20.70;;;11.02;;
31798;SDS011;18374;51.136;3.502;2023-02-21T11:25:29;19.10;;;9.23;;
31798;SDS011;18374;51.136;3.502;2023-02-21T11:33:25;17.45;;;7.78;;
31798;SDS011;18374;51.136;3.502;2023-02-21T11:36:08;15.25;;;8.13;;
31798;SDS011;18374;51.136;3.502;2023-02-21T11:38:42;17.45;;;8.35;;
31798;SDS011;18374;51.136;3.502;2023-02-21T11:43:59;18.77;;;8.05;;
31798;SDS011;18374;51.136;3.502;2023-02-21T11:51:42;18.17;;;8.75;;
31798;SDS011;18374;51.136;3.502;2023-02-21T11:54:28;19.35;;;9.63;;
31798;SDS011;18374;51.136;3.502;2023-02-21T11:56:59;23.40;;;9.90;;
31798;SDS011;18374;51.136;3.502;2023-02-21T12:23:15;17.35;;;9.05;;
31798;SDS011;18374;51.136;3.502;2023-02-21T12:34:37;18.73;;;9.20;;
31798;SDS011;18374;51.136;3.502;2023-02-21T12:37:31;15.48;;;8.13;;
31798;SDS011;18374;51.136;3.502;2023-02-21T12:40:59;16.52;;;9.77;;
31798;SDS011;18374;51.136;3.502;2023-02-21T12:43:45;16.83;;;8.48;;
31798;SDS011;18374;51.136;3.502;2023-02-21T12:46:36;17.08;;;8.60;;
31798;SDS011;18374;51.136;3.502;2023-02-21T12:49:25;18.33;;;8.65;;
31798;SDS011;18374;51.136;3.502;2023-02-21T12:52:18;17.10;;;9.40;;
31798;SDS011;18374;51.136;3.502;2023-02-21T12:54:59;18.23;;;9.52;;
31798;SDS011;18374;51.136;3.502;2023-02-21T12:58:16;19.85;;;10.32;;
31798;SDS011;18374;51.136;3.502;2023-02-21T13:01:35;18.40;;;9.38;;
31798;SDS011;18374;51.136;3.502;2023-02-21T13:04:17;19.95;;;10.80;;
31798;SDS011;18374;51.136;3.502;2023-02-21T13:07:31;22.60;;;10.85;;
31798;SDS011;18374;51.136;3.502;2023-02-21T13:10:11;24.30;;;10.93;;
31798;SDS011;18374;51.136;3.502;2023-02-21T13:15:48;21.45;;;12.32;;
31798;SDS011;18374;51.136;3.502;2023-02-21T13:18:20;24.17;;;11.48;;
31798;SDS011;18374;51.136;3.502;2023-02-21T13:24:19;13.25;;;8.23;;
31798;SDS011;18374;51.136;3.502;2023-02-21T13:32:59;15.40;;;8.48;;
31798;SDS011;18374;51.136;3.502;2023-02-21T13:35:29;15.30;;;8.65;;
31798;SDS011;18374;51.136;3.502;2023-02-21T13:38:00;12.23;;;7.80;;
31798;SDS011;18374;51.136;3.502;2023-02-21T13:40:37;13.63;;;8.07;;
31798;SDS011;18374;51.136;3.502;2023-02-21T13:46:02;15.10;;;9.15;;
31798;SDS011;18374;51.136;3.502;2023-02-21T13:57:42;14.40;;;8.50;;
31798;SDS011;18374;51.136;3.502;2023-02-21T14:13:37;19.83;;;9.32;;
31798;SDS011;18374;51.136;3.502;2023-02-21T14:16:09;16.23;;;9.52;;
31798;SDS011;18374;51.136;3.502;2023-02-21T14:26:50;23.30;;;12.50;;
31798;SDS011;18374;51.136;3.502;2023-02-21T14:34:32;19.85;;;10.80;;
31798;SDS011;18374;51.136;3.502;2023-02-21T14:57:53;19.77;;;10.77;;
31798;SDS011;18374;51.136;3.502;2023-02-21T15:03:34;20.23;;;11.20;;
31798;SDS011;18374;51.136;3.502;2023-02-21T15:06:18;22.93;;;13.20;;
31798;SDS011;18374;51.136;3.502;2023-02-21T15:08:49;23.02;;;12.32;;
31798;SDS011;18374;51.136;3.502;2023-02-21T15:16:56;21.38;;;12.10;;
31798;SDS011;18374;51.136;3.502;2023-02-21T15:19:38;26.55;;;12.52;;
31798;SDS011;18374;51.136;3.502;2023-02-21T15:27:37;20.90;;;12.45;;
31798;SDS011;18374;51.136;3.502;2023-02-21T15:30:26;23.65;;;13.25;;
31798;SDS011;18374;51.136;3.502;2023-02-21T15:35:38;28.33;;;14.65;;
31798;SDS011;18374;51.136;3.502;2023-02-21T15:38:26;27.00;;;14.38;;
31798;SDS011;18374;51.136;3.502;2023-02-21T15:40:57;24.48;;;13.93;;
31798;SDS011;18374;51.136;3.502;2023-02-21T15:43:32;20.30;;;12.18;;
31798;SDS011;18374;51.136;3.502;2023-02-21T15:46:21;21.77;;;11.75;;
31798;SDS011;18374;51.136;3.502;2023-02-21T15:48:55;23.83;;;12.70;;
31798;SDS011;18374;51.136;3.502;2023-02-21T15:51:26;17.33;;;11.35;;
31798;SDS011;18374;51.136;3.502;2023-02-21T15:54:09;20.17;;;12.07;;
31798;SDS011;18374;51.136;3.502;2023-02-21T15:59:39;18.50;;;11.13;;
31798;SDS011;18374;51.136;3.502;2023-02-21T16:04:42;19.48;;;11.13;;
31798;SDS011;18374;51.136;3.502;2023-02-21T16:07:26;20.70;;;11.40;;
31798;SDS011;18374;51.136;3.502;2023-02-21T16:10:04;20.73;;;11.75;;
31798;SDS011;18374;51.136;3.502;2023-02-21T16:12:43;18.20;;;11.80;;
31798;SDS011;18374;51.136;3.502;2023-02-21T16:17:55;22.17;;;12.60;;
31798;SDS011;18374;51.136;3.502;2023-02-21T16:20:34;20.50;;;11.73;;
31798;SDS011;18374;51.136;3.502;2023-02-21T16:28:35;19.92;;;11.38;;
31798;SDS011;18374;51.136;3.502;2023-02-21T16:31:12;21.23;;;12.57;;
31798;SDS011;18374;51.136;3.502;2023-02-21T16:33:43;33.25;;;16.80;;
31798;SDS011;18374;51.136;3.502;2023-02-21T16:36:24;30.02;;;15.23;;
31798;SDS011;18374;51.136;3.502;2023-02-21T16:38:54;29.30;;;16.27;;
31798;SDS011;18374;51.136;3.502;2023-02-21T16:41:23;26.08;;;14.10;;
31798;SDS011;18374;51.136;3.502;2023-02-21T16:43:52;26.38;;;14.52;;
31798;SDS011;18374;51.136;3.502;2023-02-21T16:46:22;22.38;;;13.20;;
31798;SDS011;18374;51.136;3.502;2023-02-21T16:48:56;19.20;;;12.10;;
31798;SDS011;18374;51.136;3.502;2023-02-21T16:51:25;19.58;;;12.68;;
31798;SDS011;18374;51.136;3.502;2023-02-21T16:53:59;20.42;;;13.15;;
31798;SDS011;18374;51.136;3.502;2023-02-21T16:56:29;24.30;;;13.43;;
31798;SDS011;18374;51.136;3.502;2023-02-21T16:58:57;22.55;;;13.73;;
31798;SDS011;18374;51.136;3.502;2023-02-21T17:01:28;21.55;;;13.57;;
31798;SDS011;18374;51.136;3.502;2023-02-21T17:03:58;22.80;;;13.40;;
31798;SDS011;18374;51.136;3.502;2023-02-21T17:06:28;23.88;;;14.52;;
31798;SDS011;18374;51.136;3.502;2023-02-21T17:08:56;27.73;;;16.02;;
31798;SDS011;18374;51.136;3.502;2023-02-21T17:11:25;24.55;;;14.43;;
31798;SDS011;18374;51.136;3.502;2023-02-21T17:13:53;26.10;;;14.30;;
31798;SDS011;18374;51.136;3.502;2023-02-21T17:16:20;24.52;;;14.30;;
31798;SDS011;18374;51.136;3.502;2023-02-21T17:18:48;28.15;;;16.15;;
31798;SDS011;18374;51.136;3.502;2023-02-21T17:21:16;25.77;;;15.15;;
31798;SDS011;18374;51.136;3.502;2023-02-21T17:23:44;28.70;;;16.20;;
31798;SDS011;18374;51.136;3.502;2023-02-21T17:26:14;24.10;;;14.02;;
31798;SDS011;18374;51.136;3.502;2023-02-21T17:28:43;29.58;;;15.02;;
31798;SDS011;18374;51.136;3.502;2023-02-21T17:31:13;26.73;;;14.52;;
31798;SDS011;18374;51.136;3.502;2023-02-21T17:33:45;31.98;;;16.15;;
31798;SDS011;18374;51.136;3.502;2023-02-21T17:36:16;26.15;;;14.85;;
31798;SDS011;18374;51.136;3.502;2023-02-21T17:38:45;28.40;;;14.95;;
31798;SDS011;18374;51.136;3.502;2023-02-21T17:41:13;30.42;;;15.90;;
31798;SDS011;18374;51.136;3.502;2023-02-21T17:43:44;29.88;;;16.42;;
31798;SDS011;18374;51.136;3.502;2023-02-21T17:46:13;29.63;;;15.02;;
31798;SDS011;18374;51.136;3.502;2023-02-21T17:48:43;26.20;;;15.18;;
31798;SDS011;18374;51.136;3.502;2023-02-21T17:51:18;31.52;;;16.90;;
31798;SDS011;18374;51.136;3.502;2023-02-21T17:53:50;26.52;;;15.25;;
31798;SDS011;18374;51.136;3.502;2023-02-21T17:56:19;29.92;;;15.48;;
31798;SDS011;18374;51.136;3.502;2023-02-21T17:58:50;28.23;;;15.50;;
31798;SDS011;18374;51.136;3.502;2023-02-21T18:01:18;28.67;;;15.77;;
31798;SDS011;18374;51.136;3.502;2023-02-21T18:03:47;25.95;;;15.02;;
31798;SDS011;18374;51.136;3.502;2023-02-21T18:06:15;26.58;;;14.60;;
31798;SDS011;18374;51.136;3.502;2023-02-21T18:08:44;29.60;;;15.07;;
31798;SDS011;18374;51.136;3.502;2023-02-21T18:11:14;28.65;;;15.65;;
31798;SDS011;18374;51.136;3.502;2023-02-21T18:13:44;27.60;;;14.82;;
31798;SDS011;18374;51.136;3.502;2023-02-21T18:16:12;28.88;;;15.75;;
31798;SDS011;18374;51.136;3.502;2023-02-21T18:18:40;28.10;;;15.25;;
31798;SDS011;18374;51.136;3.502;2023-02-21T18:21:08;32.72;;;15.35;;
31798;SDS011;18374;51.136;3.502;2023-02-21T18:23:36;27.40;;;14.52;;
31798;SDS011;18374;51.136;3.502;2023-02-21T18:26:04;29.55;;;15.52;;
31798;SDS011;18374;51.136;3.502;2023-02-21T18:28:32;24.35;;;14.63;;
31798;SDS011;18374;51.136;3.502;2023-02-21T18:30:59;25.13;;;13.20;;
31798;SDS011;18374;51.136;3.502;2023-02-21T18:33:28;24.27;;;13.52;;
31798;SDS011;18374;51.136;3.502;2023-02-21T18:35:57;24.55;;;13.98;;
31798;SDS011;18374;51.136;3.502;2023-02-21T18:38:26;24.13;;;12.60;;
31798;SDS011;18374;51.136;3.502;2023-02-21T18:40:54;27.05;;;13.25;;
31798;SDS011;18374;51.136;3.502;2023-02-21T18:43:27;22.05;;;12.82;;
31798;SDS011;18374;51.136;3.502;2023-02-21T18:45:56;22.60;;;12.52;;
31798;SDS011;18374;51.136;3.502;2023-02-21T18:48:24;20.83;;;11.90;;
31798;SDS011;18374;51.136;3.502;2023-02-21T18:50:53;22.65;;;13.25;;
31798;SDS011;18374;51.136;3.502;2023-02-21T18:53:20;21.27;;;12.27;;
31798;SDS011;18374;51.136;3.502;2023-02-21T18:55:48;25.58;;;14.07;;
31798;SDS011;18374;51.136;3.502;2023-02-21T18:58:16;25.75;;;14.40;;